Terminal Aerodrome Forecast
Issued by NWS Omaha/Valley, NE

Home | Current Version | Previous Version | Text Only | Print | Product List | Glossary Off
Versions: 1 2 3 4 5 6 7 8 9 10 11 12 13 14 15 16 17 18 19 20 21 22 23 24 25 26 27 28 29

000
FTUS43 KOAX 042321
TAFOFK
TAF
KOFK 042321Z 0500/0524 23007KT P6SM FEW250
     FM050800 19010KT P6SM BKN200 WS020/23050KT
     FM051500 22012KT P6SM BKN150
     FM052000 26012KT P6SM BKN110
     FM052200 29012KT P6SM BKN090=

USA.gov is the U.S. government's official web portal to all federal, state and local government web resources and services.